Terminal Aerodrome Forecast
Issued by NWS

Home | Current Version | Previous Version | Text Only | Print | Product List | Glossary On
Versions: 1 2 3 4 5 6 7 8 9 10 11 12 13 14 15 16 17 18 19 20 21
000
FTUS43 KLSX 241919 AAA
TAFSUS
TAF AMD
KSUS 241919Z 2419/2518 26012G23KT P6SM BKN022
     FM250700 29014G23KT P6SM OVC015
     FM251400 30014G23KT P6SM BKN020
     FM251600 31013G22KT P6SM SCT070=

USA.gov is the U.S. government's official web portal to all federal, state and local government web resources and services.